Latest Weather Observations for Armidale Airport

IDN60801

Issued at 8:52 am EDT Wednesday 20 November 2019 (issued every 10 minutes, with the page automatically refreshed every 10 minutes)

About weather observations | Map of weather stations | Latest weather observations for NSW | Other Formats
Station Details ID: 056238 Name: ARMIDALE AIRPORT AWS Lat: -30.53 Lon: 151.62 Height: 1079.0 m
Data from the previous 72 hours. | See also: Recent months at Armidale Airport
Date/Time
EDT
Temp
°C
App
Temp
°C
Dew
Point
°C
Rel
Hum
%
Delta-T
°C
Wind Press
QNH
hPa
Press
MSL
hPa
Rain since
9am
mm
Dir  Spd
km/h
Gust
km/h
Spd
kts
Gust
kts
20/08:30am 25.3 18.9 -1.5 17 12.7 W 22 30 12 16 1018.4 1013.9 0.0
20/08:00am 24.6 18.6 -1.3 18 12.2 W 20 28 11 15 1018.3 1013.8 0.0
20/07:30am 22.3 17.4 -0.4 22 10.7 WNW 15 17 8 9 1018.0 1013.5 0.0
20/07:00am 19.8 15.2 -0.8 25 9.5 WNW 13 15 7 8 1017.8 1013.3 0.0
20/06:30am 16.9 13.1 -0.8 30 8.0 WNW 9 11 5 6 1017.8 1013.3 0.0
20/06:00am 16.3 12.5 -0.8 31 7.6 WNW 9 11 5 6 1017.5 1013.0 0.0
20/05:30am 16.1 11.8 -1.5 30 7.7 NW 11 13 6 7 1017.0 1012.5 0.0
20/05:00am 16.3 12.5 -0.8 31 7.6 WNW 9 11 5 6 1016.8 1012.3 0.0
20/04:30am 15.0 12.2 -0.3 35 6.8 NNW 4 6 2 3 1016.6 1012.1 0.0
20/04:00am 14.4 11.1 -0.1 37 6.5 NE 7 9 4 5 1016.4 1011.8 0.0
20/03:30am 14.9 11.1 -0.8 34 6.9 NE 9 11 5 6 1016.4 1011.8 0.0
20/03:00am 15.2 11.7 -1.4 32 7.3 NNE 7 7 4 4 1016.4 1011.8 0.0
20/02:30am 15.5 11.7 -0.7 33 7.2 NE 9 11 5 6 1016.6 1012.1 0.0
20/02:00am 14.0 9.4 -1.2 35 6.6 NE 13 15 7 8 1016.9 1012.4 0.0
20/01:30am 14.2 10.2 -2.2 32 7.0 NE 9 13 5 7 1017.4 1012.9 0.0
20/01:00am 14.7 10.3 -2.7 30 7.4 ENE 11 13 6 7 1017.6 1013.1 0.0
20/12:30am 15.8 11.4 -2.6 28 7.9 E 11 15 6 8 1018.0 1013.5 0.0
20/12:00am 18.0 14.4 -3.4 23 9.2 W 6 9 3 5 1018.0 1013.5 0.0
 
Date/Time
EDT
Temp
°C
App
Temp
°C
Dew
Point
°C
Rel
Hum
%
Delta-T
°C
Wind Press
QNH
hPa
Press
MSL
hPa
Rain since
9am
mm
Dir  Spd
km/h
Gust
km/h
Spd
kts
Gust
kts
19/11:30pm 18.7 14.2 -3.4 22 9.6 WNW 11 13 6 7 1018.0 1013.5 0.0
19/11:00pm 19.1 14.6 -3.1 22 9.7 NW 11 13 6 7 1018.1 1013.7 0.0
19/10:30pm 18.2 13.7 -3.2 23 9.3 NNW 11 13 6 7 1018.1 1013.7 0.0
19/10:00pm 17.5 13.7 -3.8 23 9.0 N 7 9 4 5 1018.0 1013.5 0.0
19/09:30pm 18.9 15.4 -2.7 23 9.5 NNW 6 7 3 4 1017.8 1013.3 0.0
19/09:00pm 20.2 16.1 -3.4 20 10.3 NW 9 11 5 6 1017.5 1013.0 0.0
19/08:30pm 20.3 16.5 -3.4 20 10.4 WNW 7 7 4 4 1017.4 1012.9 0.0
19/08:00pm 21.3 17.5 -4.0 18 11.1 WNW 7 9 4 5 1017.3 1012.8 0.0
19/07:30pm 23.1 18.9 -4.1 16 12.1 W 9 13 5 7 1016.9 1012.4 0.0
19/07:00pm 25.9 20.4 -5.6 12 13.9 WSW 15 20 8 11 1016.6 1012.1 0.0
19/06:30pm 26.8 20.0 -4.9 12 14.3 SW 22 33 12 18 1016.4 1011.8 0.0
19/06:00pm 27.3 20.4 -5.7 11 14.7 SW 22 30 12 16 1015.9 1011.4 0.0
19/05:30pm 28.1 21.7 -5.1 11 15.1 W 20 28 11 15 1015.8 1011.3 0.0
19/05:00pm 28.3 21.9 -4.9 11 15.2 WSW 20 32 11 17 1015.7 1011.2 0.0
19/04:30pm 28.2 21.0 -5.0 11 15.1 WSW 24 35 13 19 1015.8 1011.3 0.0
19/04:00pm 27.7 20.9 -5.4 11 14.9 WSW 22 32 12 17 1016.0 1011.5 0.0
19/03:30pm 28.2 20.9 -6.3 10 15.4 WSW 24 37 13 20 1016.1 1011.6 0.0
19/03:00pm 27.9 21.3 -6.5 10 15.2 W 20 32 11 17 1016.5 1012.0 0.0
19/02:30pm 27.1 20.5 -7.1 10 14.9 SW 20 30 11 16 1016.7 1012.2 0.0
19/02:00pm 27.5 20.0 -4.4 12 14.6 W 26 44 14 24 1017.0 1012.5 0.0
19/01:36pm 26.9 22.1 -2.8 14 13.9 SW 13 43 7 23 1017.4 1012.9 0.0
19/01:30pm 25.8 21.2 -1.1 17 12.9 WSW 13 24 7 13 1017.5 1013.0 0.0
19/01:00pm 26.7 20.4 -1.2 16 13.4 W 22 39 12 21 1017.7 1013.2 0.0
19/12:30pm 25.1 18.7 -1.6 17 12.6 SW 22 35 12 19 1018.3 1013.8 0.0
19/12:00pm 24.8 18.6 -0.4 19 12.1 WSW 22 37 12 20 1018.5 1014.0 0.0
19/11:30am 24.7 18.8 1.6 22 11.5 W 22 35 12 19 1018.7 1014.2 0.0
19/11:00am 24.0 16.8 1.0 22 11.3 W 28 35 15 19 1019.0 1014.6 0.0
19/10:30am 23.4 17.3 2.8 26 10.4 W 24 35 13 19 1019.4 1014.9 0.0
19/10:00am 23.1 17.8 2.0 25 10.5 W 19 30 10 16 1019.4 1014.9 0.0
19/09:30am 21.4 16.4 1.1 26 9.8 W 17 28 9 15 1019.5 1015.0 0.0
19/09:00am 20.9 15.6 1.7 28 9.3 WNW 19 24 10 13 1019.4 1014.9 0.0
19/08:30am 19.8 14.4 2.6 32 8.5 NW 20 26 11 14 1019.6 1015.1 0.0
19/08:00am 19.1 14.3 2.5 33 8.1 WNW 17 24 9 13 1019.6 1015.1 0.0
19/07:30am 17.5 13.3 1.9 35 7.4 WNW 13 17 7 9 1019.4 1014.9 0.0
19/07:00am 15.2 11.3 1.0 38 6.5 WNW 11 15 6 8 1019.1 1014.7 0.0
19/06:30am 13.7 9.5 1.4 43 5.6 WNW 13 17 7 9 1018.9 1014.5 0.0
19/06:00am 11.8 7.4 0.6 46 5.0 WNW 13 17 7 9 1018.6 1014.1 0.0
19/05:30am 12.4 8.8 0.8 45 5.2 WNW 9 11 5 6 1018.0 1013.5 0.0
19/05:00am 12.3 9.1 0.7 45 5.2 WNW 7 9 4 5 1017.8 1013.3 0.0
19/04:30am 12.4 8.5 1.1 46 5.1 WNW 11 13 6 7 1017.6 1013.1 0.0
19/04:00am 11.7 8.1 0.8 47 4.8 WNW 9 13 5 7 1017.7 1013.2 0.0
19/03:30am 12.4 8.8 0.5 44 5.3 WNW 9 11 5 6 1017.7 1013.2 0.0
19/03:00am 13.4 9.4 0.8 42 5.7 W 11 11 6 6 1017.8 1013.3 0.0
19/02:30am 12.9 9.6 0.3 42 5.6 WNW 7 9 4 5 1017.9 1013.4 0.0
19/02:00am 13.8 10.4 -0.3 38 6.2 WNW 7 9 4 5 1018.3 1013.8 0.0
19/01:30am 14.0 10.6 -0.4 37 6.4 NW 7 9 4 5 1018.4 1013.9 0.0
19/01:00am 14.9 11.6 0.0 36 6.7 WNW 7 7 4 4 1018.5 1014.0 0.0
19/12:30am 14.0 10.8 -0.8 36 6.5 NW 6 7 3 4 1018.8 1014.3 0.0
19/12:00am 14.9 11.7 -0.8 34 6.9 W 6 7 3 4 1018.9 1014.5 0.0
 
Date/Time
EDT
Temp
°C
App
Temp
°C
Dew
Point
°C
Rel
Hum
%
Delta-T
°C
Wind Press
QNH
hPa
Press
MSL
hPa
Rain since
9am
mm
Dir  Spd
km/h
Gust
km/h
Spd
kts
Gust
kts
18/11:30pm 14.6 11.2 -0.7 35 6.8 W 7 7 4 4 1019.1 1014.7 0.0
18/11:00pm 15.2 13.1 -0.9 33 7.1 CALM 0 0 0 0 1019.4 1014.9 0.0
18/10:30pm 15.3 11.9 -0.9 33 7.2 W 7 9 4 5 1019.3 1014.8 0.0
18/10:00pm 15.6 12.2 -0.6 33 7.2 W 7 9 4 5 1019.3 1014.8 0.0
18/09:30pm 17.6 13.8 -0.6 29 8.3 SW 9 11 5 6 1019.3 1014.8 0.0
18/09:00pm 18.0 13.9 -0.3 29 8.4 SSW 11 11 6 6 1019.0 1014.6 0.0
18/08:30pm 18.2 14.0 -0.6 28 8.6 SW 11 11 6 6 1018.8 1014.3 0.0
18/08:00pm 19.2 15.1 -0.2 27 9.0 WSW 11 13 6 7 1018.7 1014.2 0.0
18/07:30pm 20.2 15.3 -0.4 25 9.6 WSW 15 19 8 10 1018.6 1014.1 0.0
18/07:00pm 21.8 16.3 0.4 24 10.2 WSW 19 22 10 12 1018.3 1013.8 0.0
18/06:30pm 23.0 17.0 0.8 23 10.8 SW 22 28 12 15 1017.9 1013.4 0.0
18/06:00pm 24.0 18.3 0.4 21 11.5 WSW 20 30 11 16 1017.6 1013.1 0.0
18/05:30pm 24.5 18.0 0.1 20 11.8 WSW 24 33 13 18 1017.4 1012.9 0.0
18/05:00pm 24.5 17.9 -0.6 19 12.0 WSW 24 35 13 19 1017.4 1012.9 0.0
18/04:30pm 25.5 19.6 -0.5 18 12.6 W 20 28 11 15 1017.5 1013.0 0.0
18/04:00pm 24.8 19.4 -1.1 18 12.3 W 17 32 9 17 1017.7 1013.2 0.0
18/03:30pm 25.3 19.0 -0.7 18 12.5 W 22 35 12 19 1017.9 1013.4 0.0
18/03:00pm 24.7 20.7 2.8 24 11.2 WNW 13 28 7 15 1018.3 1013.8 0.0
18/02:30pm 24.0 18.7 2.8 25 10.8 W 20 35 11 19 1018.7 1014.2 0.0
18/02:00pm 22.9 17.8 0.7 23 10.8 W 17 26 9 14 1019.0 1014.6 0.0
18/01:30pm 23.3 16.8 0.4 22 11.1 WNW 24 37 13 20 1019.5 1015.0 0.0
18/01:00pm 23.8 17.3 0.2 21 11.4 WNW 24 33 13 18 1019.6 1015.1 0.0
18/12:30pm 22.9 16.8 0.1 22 10.9 WSW 22 32 12 17 1020.0 1015.6 0.0
18/12:00pm 21.9 16.7 -0.1 23 10.4 W 17 32 9 17 1020.3 1015.8 0.0
18/11:30am 21.4 17.4 2.6 29 9.4 NW 13 22 7 12 1020.7 1016.3 0.0
18/11:00am 20.8 17.8 4.0 33 8.5 NE 9 19 5 10 1021.0 1016.6 0.0
18/10:51am 19.6 16.5 5.6 40 7.3 W 11 20 6 11 1021.0 1016.6 0.0
18/10:30am 18.7 16.5 6.2 44 6.5 NNE 7 13 4 7 1021.3 1016.8 0.0
18/10:00am 17.4 14.1 6.3 48 5.8 NE 13 22 7 12 1021.4 1016.9 0.0
18/09:37am 17.3 13.6 6.5 49 5.6 NE 15 24 8 13 1021.5 1017.1 0.0
18/09:30am 16.6 12.5 6.4 51 5.3 NE 17 26 9 14 1021.5 1017.1 0.0
18/09:00am 16.2 11.6 8.2 59 4.3 ENE 22 28 12 15 1021.4 1016.9 0.0
18/08:30am 14.4 9.4 7.9 65 3.4 ENE 24 32 13 17 1021.3 1016.8 0.0
18/08:00am 13.2 7.8 8.1 71 2.7 ENE 26 32 14 17 1021.1 1016.7 0.0
18/07:30am 11.8 6.5 8.3 79 1.8 ENE 26 32 14 17 1021.0 1016.6 0.0
18/07:00am 10.6 6.5 8.5 87 1.1 E 20 28 11 15 1021.1 1016.7 0.0
18/06:48am 10.3 5.8 8.4 88 1.0 E 22 26 12 14 1021.0 1016.6 0.0
18/06:30am 10.1 6.0 8.7 91 0.7 ENE 20 26 11 14 1020.9 1016.5 0.0
18/06:00am 9.5 5.9 8.3 92 0.6 E 17 20 9 11 1020.9 1016.5 0.0
18/05:30am 9.4 6.0 7.8 90 0.8 E 15 19 8 10 1020.4 1015.9 0.0
18/05:00am 9.4 5.3 7.7 89 0.9 E 19 24 10 13 1019.9 1015.5 0.0
18/04:30am 9.7 5.5 8.1 90 0.8 E 20 26 11 14 1019.9 1015.5 0.0
18/04:09am 9.8 5.8 8.1 89 0.9 E 19 24 10 13 1020.0 1015.6 0.0
18/04:00am 9.7 6.0 8.0 89 0.9 E 17 22 9 12 1020.0 1015.6 0.0
18/03:48am 9.9 6.2 8.0 88 1.0 E 17 22 9 12 1020.0 1015.6 0.0
18/03:30am 10.0 6.3 7.9 87 1.1 E 17 20 9 11 1020.0 1015.6 0.0
18/03:12am 9.7 5.9 7.6 87 1.1 ENE 17 20 9 11 1019.9 1015.5 0.0
18/03:00am 9.9 5.8 7.8 87 1.1 ENE 19 22 10 12 1019.9 1015.5 0.0
18/02:30am 9.9 6.5 7.7 86 1.1 E 15 19 8 10 1019.8 1015.4 0.0
18/02:00am 9.6 6.1 7.4 86 1.1 ENE 15 17 8 9 1019.9 1015.5 0.0
18/01:30am 10.5 6.7 7.7 83 1.4 E 17 20 9 11 1020.4 1015.9 0.0
18/01:00am 11.0 8.0 7.9 81 1.6 E 13 19 7 10 1020.6 1016.2 0.0
18/12:30am 11.3 7.6 8.0 80 1.7 E 17 26 9 14 1020.8 1016.4 0.0
18/12:00am 11.8 7.6 8.1 78 1.9 E 20 28 11 15 1021.0 1016.6 0.0
 
Date/Time
EDT
Temp
°C
App
Temp
°C
Dew
Point
°C
Rel
Hum
%
Delta-T
°C
Wind Press
QNH
hPa
Press
MSL
hPa
Rain since
9am
mm
Dir  Spd
km/h
Gust
km/h
Spd
kts
Gust
kts
17/11:30pm 12.1 7.5 8.2 77 2.0 E 22 33 12 18 1021.3 1016.8 0.0
17/11:09pm 12.2 6.9 8.3 77 2.0 E 26 33 14 18 1021.0 1016.6 0.0
17/11:00pm 12.4 6.4 8.5 77 2.0 E 30 37 16 20 1020.9 1016.5 0.0
17/10:30pm 12.6 7.5 9.1 79 1.9 E 26 35 14 19 1021.0 1016.6 0.0
17/10:10pm 13.0 7.5 9.3 78 2.0 ENE 28 39 15 21 1020.7 1016.3 0.0
17/10:00pm 13.3 7.9 9.5 78 2.0 ENE 28 37 15 20 1020.7 1016.3 0.0
17/09:30pm 13.8 8.6 10.4 80 1.9 ENE 28 37 15 20 1020.4 1015.9 0.0
17/09:00pm 14.3 10.4 10.7 79 2.0 E 22 28 12 15 1019.9 1015.5 0.0
17/08:40pm 14.3 10.0 10.7 79 2.0 E 24 33 13 18 1019.5 1015.0 0.0
17/08:30pm 14.4 9.6 10.4 77 2.2 E 26 37 14 20 1019.1 1014.7 0.0
17/08:00pm 16.1 11.8 9.3 64 3.7 ESE 22 33 12 18 1018.6 1014.1 0.0
17/07:57pm 16.4 11.7 9.1 62 4.0 ESE 24 35 13 19 1018.4 1013.9 0.0
17/07:30pm 20.0 13.5 -5.8 17 10.8 SSW 20 24 11 13 1017.5 1013.0 0.0
17/07:00pm 21.5 14.6 -6.2 15 11.6 WSW 22 28 12 15 1016.7 1012.2 0.0
17/06:30pm 22.8 16.4 -5.2 15 12.1 SW 20 28 11 15 1015.9 1011.4 0.0
17/06:00pm 23.0 15.5 -5.0 15 12.2 WSW 26 35 14 19 1015.5 1010.9 0.0
17/05:30pm 23.7 16.6 -4.4 15 12.5 W 24 35 13 19 1015.3 1010.7 0.0
17/05:00pm 24.0 17.3 -4.2 15 12.6 SW 22 41 12 22 1015.3 1010.7 0.0
17/04:47pm 23.3 15.5 -3.9 16 12.1 WSW 28 46 15 25 1015.3 1010.7 0.0
17/04:30pm 23.0 16.0 -3.3 17 11.8 WSW 24 33 13 18 1015.3 1010.7 0.0
17/04:00pm 24.0 15.2 -6.1 13 13.0 W 32 48 17 26 1015.1 1010.6 0.0
17/03:42pm 24.5 14.9 -4.7 14 13.0 SW 37 50 20 27 1015.3 1010.7 0.0
17/03:38pm 24.5 15.0 -3.8 15 12.8 SW 37 50 20 27 1015.1 1010.6 0.0
17/03:30pm 24.4 15.3 -3.9 15 12.8 WSW 35 52 19 28 1015.3 1010.7 0.0
17/03:06pm 24.4 16.4 -2.2 17 12.4 WSW 30 48 16 26 1015.3 1010.7 0.0
17/03:00pm 24.6 16.4 -1.3 18 12.3 WSW 32 46 17 25 1015.3 1010.7 0.0
17/02:30pm 24.5 15.7 -1.3 18 12.2 WSW 35 54 19 29 1015.1 1010.6 0.0
17/02:14pm 23.1 13.8 -1.8 19 11.5 WSW 37 56 20 30 1015.5 1010.9 0.0
17/02:00pm 23.7 14.9 -1.3 19 11.8 WSW 35 50 19 27 1015.5 1010.9 0.0
17/01:30pm 23.8 14.5 -1.9 18 12.0 WSW 37 52 20 28 1015.6 1011.1 0.0
17/01:04pm 22.3 13.8 -1.7 20 11.1 W 33 52 18 28 1015.7 1011.2 0.0
17/01:00pm 22.8 13.9 -2.0 19 11.4 W 35 52 19 28 1015.7 1011.2 0.0
17/12:58pm 23.9 15.1 -1.1 19 11.8 W 35 52 19 28 1015.7 1011.2 0.0
17/12:55pm 24.1 15.7 -0.9 19 11.9 W 33 56 18 30 1015.7 1011.2 0.0
17/12:34pm 23.6 14.1 -0.6 20 11.5 W 39 57 21 31 1015.9 1011.4 0.0
17/12:30pm 24.2 14.3 -0.9 19 11.9 W 41 57 22 31 1015.7 1011.2 0.0
17/12:13pm 24.1 16.4 -0.2 20 11.7 W 30 52 16 28 1016.0 1011.5 0.0
17/12:00pm 23.1 14.8 -0.4 21 11.2 W 33 50 18 27 1016.1 1011.6 0.0
17/11:55am 24.3 16.8 1.2 22 11.4 W 30 50 16 27 1016.0 1011.5 0.0
17/11:30am 22.2 15.8 0.7 24 10.4 W 24 37 13 20 1016.7 1012.2 0.0
17/11:05am 23.1 16.1 2.0 25 10.5 W 28 50 15 27 1016.7 1012.2 0.0
17/11:00am 22.0 14.8 0.5 24 10.3 W 28 44 15 24 1016.9 1012.4 0.0
17/10:30am 22.2 14.1 1.3 25 10.2 W 33 43 18 23 1017.0 1012.5 0.0
17/10:00am 22.2 16.6 1.3 25 10.2 WNW 20 30 11 16 1017.0 1012.5 0.0
17/09:30am 21.0 14.2 0.8 26 9.7 WSW 26 35 14 19 1017.4 1012.9 0.0
17/09:00am 20.3 15.0 -0.3 25 9.6 WNW 17 24 9 13 1017.4 1012.9 0.0

Other formats

Comma delimited format used in spreadsheet applications
http://www.bom.gov.au/fwo/IDN60801/IDN60801.95773.axf

JavaScript Object Notation format (JSON) in row-major order
http://www.bom.gov.au/fwo/IDN60801/IDN60801.95773.json

Data quality

Most of these data are generated automatically and are frequently updated. Quality checks on data are not normally performed. It is possible for incorrect values to appear. Refer to information at About Latest Weather Observations and please check the disclaimer before using these data.